createdAt,value
2018-07-13T00:01:37.297Z,34.93
2018-07-13T00:04:07.949Z,28.00
2018-07-13T00:06:38.473Z,33.67
2018-07-13T00:09:11.194Z,32.57
2018-07-13T00:11:43.268Z,30.30
2018-07-13T00:14:18.490Z,29.00
2018-07-13T00:16:51.105Z,30.17
2018-07-13T00:19:22.686Z,37.33
2018-07-13T00:21:53.793Z,36.67
2018-07-13T00:24:24.461Z,34.27
2018-07-13T00:26:55.665Z,37.53
2018-07-13T00:29:26.354Z,35.03
2018-07-13T00:31:57.021Z,33.53
2018-07-13T00:34:28.064Z,33.87
2018-07-13T00:36:58.754Z,31.60
2018-07-13T00:39:29.564Z,31.57
2018-07-13T00:42:00.552Z,33.97
2018-07-13T00:44:31.620Z,33.70
2018-07-13T00:47:02.246Z,32.40
2018-07-13T00:49:32.909Z,28.23
2018-07-13T00:52:03.756Z,29.40
2018-07-13T00:54:34.794Z,29.83
2018-07-13T00:57:05.858Z,27.60
2018-07-13T00:59:36.646Z,31.17
2018-07-13T01:02:07.340Z,23.20
2018-07-13T01:04:38.067Z,24.70
2018-07-13T01:07:09.032Z,24.80
2018-07-13T01:09:39.648Z,29.17
2018-07-13T01:12:10.390Z,26.67
2018-07-13T01:14:41.617Z,30.43
2018-07-13T01:17:12.546Z,31.93
2018-07-13T01:19:43.240Z,29.53
2018-07-13T01:22:14.263Z,30.67
2018-07-13T01:24:44.912Z,30.57
2018-07-13T01:27:15.615Z,28.47
2018-07-13T01:29:47.039Z,28.87
2018-07-13T01:32:17.975Z,26.47
2018-07-13T01:34:48.593Z,37.07
2018-07-13T01:37:19.197Z,29.63
2018-07-13T01:39:49.768Z,28.50
2018-07-13T01:42:20.350Z,28.13
2018-07-13T01:44:51.371Z,29.80
2018-07-13T01:47:22.522Z,30.40
2018-07-13T01:49:53.610Z,28.73
2018-07-13T01:52:24.210Z,31.33
2018-07-13T01:54:54.778Z,33.03
2018-07-13T01:57:26.174Z,30.43
2018-07-13T01:59:56.565Z,33.00
2018-07-13T02:02:27.655Z,27.50
2018-07-13T02:04:58.573Z,28.27
2018-07-13T02:07:29.088Z,26.77
2018-07-13T02:09:59.667Z,28.70
2018-07-13T02:12:31.102Z,30.60
2018-07-13T02:15:02.106Z,28.50
2018-07-13T02:17:32.925Z,26.77
2018-07-13T02:20:04.598Z,26.63
2018-07-13T02:22:35.724Z,32.90
2018-07-13T02:25:06.464Z,27.97
2018-07-13T02:27:37.066Z,27.73
2018-07-13T02:30:08.251Z,28.93
2018-07-13T02:32:38.872Z,31.17
2018-07-13T02:35:09.508Z,29.23
2018-07-13T02:37:40.266Z,28.80
2018-07-13T02:40:10.866Z,28.07
2018-07-13T02:42:41.507Z,29.73
2018-07-13T02:45:12.698Z,32.87
2018-07-13T02:47:43.392Z,35.63
2018-07-13T02:50:13.966Z,26.87
2018-07-13T02:52:44.874Z,24.47
2018-07-13T02:55:16.671Z,23.10
2018-07-13T02:57:47.359Z,22.80
2018-07-13T03:00:18.031Z,27.60
2018-07-13T03:02:49.191Z,25.40
2018-07-13T03:05:20.166Z,22.07
2018-07-13T03:07:50.751Z,23.23
2018-07-13T03:10:21.806Z,26.23
2018-07-13T03:12:52.558Z,25.43
2018-07-13T03:15:23.575Z,28.90
2018-07-13T03:17:54.553Z,29.17
2018-07-13T03:20:25.181Z,28.57
2018-07-13T03:22:56.071Z,25.13
2018-07-13T03:25:27.014Z,26.20
2018-07-13T03:27:57.808Z,25.23
2018-07-13T03:30:28.410Z,25.30
2018-07-13T03:32:59.356Z,30.23
2018-07-13T03:35:29.943Z,26.67
2018-07-13T03:38:00.626Z,25.07
2018-07-13T03:40:31.210Z,24.67
2018-07-13T03:43:03.119Z,26.63
2018-07-13T03:45:33.726Z,26.30
2018-07-13T03:48:04.307Z,21.47
2018-07-13T03:50:34.927Z,24.87
2018-07-13T03:53:05.625Z,21.70
2018-07-13T03:55:36.346Z,22.87
2018-07-13T03:58:07.399Z,23.40
2018-07-13T04:00:37.971Z,20.70
2018-07-13T04:03:08.574Z,23.50
2018-07-13T04:05:39.574Z,26.23
2018-07-13T04:08:10.542Z,24.57
2018-07-13T04:10:41.218Z,22.90
2018-07-13T04:13:12.538Z,20.97
2018-07-13T04:15:43.147Z,28.73
2018-07-13T04:18:20.723Z,25.80
2018-07-13T04:20:52.546Z,23.67
2018-07-13T04:23:24.479Z,20.93
2018-07-13T04:25:55.210Z,23.70
2018-07-13T04:28:26.586Z,22.77
2018-07-13T04:30:57.572Z,20.97
2018-07-13T04:33:28.159Z,23.47
2018-07-13T04:35:58.747Z,25.33
2018-07-13T04:38:29.442Z,25.47
2018-07-13T04:41:01.744Z,22.07
2018-07-13T04:43:32.623Z,25.83
2018-07-13T04:46:03.737Z,21.67
2018-07-13T04:48:34.674Z,24.03
2018-07-13T04:51:05.514Z,22.87
2018-07-13T04:53:37.190Z,17.10
2018-07-13T04:56:07.437Z,18.60
2018-07-13T04:58:38.538Z,16.53
2018-07-13T05:01:09.913Z,20.77
2018-07-13T05:03:40.765Z,24.03
2018-07-13T05:06:12.072Z,18.60
2018-07-13T05:08:42.886Z,18.13
2018-07-13T05:11:13.542Z,17.17
2018-07-13T05:13:44.378Z,22.23
2018-07-13T05:16:15.493Z,19.37
2018-07-13T05:18:46.474Z,18.83
2018-07-13T05:21:17.232Z,19.90
2018-07-13T05:23:49.658Z,15.53
2018-07-13T05:26:20.785Z,17.33
2018-07-13T05:28:51.852Z,16.27
2018-07-13T05:31:22.884Z,17.60
2018-07-13T05:33:53.687Z,17.97
2018-07-13T05:36:24.546Z,17.00
2018-07-13T05:38:56.469Z,15.07
2018-07-13T05:41:27.282Z,17.80
2018-07-13T05:43:58.440Z,17.07
2018-07-13T05:46:29.282Z,17.87
2018-07-13T05:49:00.114Z,14.20
2018-07-13T05:51:31.510Z,17.20
2018-07-13T05:54:02.740Z,18.37
2018-07-13T05:56:33.663Z,19.00
2018-07-13T05:59:04.886Z,17.97
2018-07-13T06:01:35.990Z,17.73
2018-07-13T06:04:07.027Z,20.00
2018-07-13T06:06:37.812Z,17.43
2018-07-13T06:09:11.276Z,16.63
2018-07-13T06:11:43.643Z,17.03
2018-07-13T06:14:14.319Z,15.53
2018-07-13T06:16:45.062Z,17.20
2018-07-13T06:19:16.128Z,18.77
2018-07-13T06:21:46.708Z,19.73
2018-07-13T06:24:17.658Z,17.10
2018-07-13T06:26:48.290Z,16.27
2018-07-13T06:29:19.021Z,15.07
2018-07-13T06:31:50.342Z,17.27
2018-07-13T06:34:21.107Z,17.93
2018-07-13T06:36:51.948Z,18.67
2018-07-13T06:39:23.183Z,18.73
2018-07-13T06:41:54.050Z,19.70
2018-07-13T06:44:26.411Z,17.60
2018-07-13T06:46:58.264Z,13.50
2018-07-13T06:49:29.082Z,14.77
2018-07-13T06:51:59.828Z,18.77
2018-07-13T06:54:31.468Z,14.20
2018-07-13T06:57:02.034Z,18.47
2018-07-13T06:59:32.891Z,17.93
2018-07-13T07:02:04.014Z,17.97
2018-07-13T07:04:36.905Z,16.37
2018-07-13T07:07:15.279Z,17.87
2018-07-13T07:09:51.362Z,15.07
2018-07-13T07:13:02.215Z,23.07
2018-07-13T07:15:33.326Z,18.67
2018-07-13T07:18:07.094Z,20.23
2018-07-13T07:20:38.503Z,17.57
2018-07-13T07:23:09.133Z,17.23
2018-07-13T07:25:40.594Z,16.53
2018-07-13T07:28:11.282Z,19.30
2018-07-13T07:30:42.341Z,20.27
2018-07-13T07:33:13.004Z,15.53
2018-07-13T07:35:43.946Z,16.33
2018-07-13T07:38:14.985Z,20.30
2018-07-13T07:40:46.527Z,20.27
2018-07-13T07:43:18.192Z,20.00
2018-07-13T07:45:49.276Z,16.10
2018-07-13T07:48:20.131Z,17.07
2018-07-13T07:50:51.322Z,16.83
2018-07-13T07:53:22.186Z,20.93
2018-07-13T07:55:53.776Z,16.50
2018-07-13T07:58:24.394Z,16.90
2018-07-13T08:00:55.040Z,14.47
2018-07-13T08:03:25.791Z,16.87
2018-07-13T08:05:56.745Z,18.10
2018-07-13T08:08:27.808Z,17.93
2018-07-13T08:10:58.763Z,21.13
2018-07-13T08:13:29.337Z,12.63
2018-07-13T08:16:00.096Z,18.37
2018-07-13T08:18:30.686Z,15.60
2018-07-13T08:21:02.174Z,16.63
2018-07-13T08:23:32.907Z,15.97
2018-07-13T08:26:04.231Z,18.93
2018-07-13T08:28:36.068Z,14.13
2018-07-13T08:31:07.234Z,16.57
2018-07-13T08:33:38.214Z,16.97
2018-07-13T08:36:09.180Z,13.93
2018-07-13T08:38:40.195Z,16.77
2018-07-13T08:41:11.388Z,15.77
2018-07-13T08:43:42.117Z,16.33
2018-07-13T08:46:12.878Z,16.93
2018-07-13T08:48:43.792Z,14.73
2018-07-13T08:51:14.984Z,14.77
2018-07-13T08:53:45.935Z,13.70
2018-07-13T08:56:17.976Z,14.53
2018-07-13T08:58:48.950Z,14.73
2018-07-13T09:01:19.636Z,13.90
2018-07-13T09:03:50.443Z,14.73
2018-07-13T09:06:22.178Z,15.93
2018-07-13T09:08:57.065Z,14.63
2018-07-13T09:11:28.058Z,17.90
2018-07-13T09:13:58.895Z,16.87
2018-07-13T09:16:33.791Z,18.83
2018-07-13T09:19:07.541Z,21.80
2018-07-13T09:21:38.715Z,16.63
2018-07-13T09:24:10.898Z,13.73
2018-07-13T09:26:43.873Z,15.20
2018-07-13T09:29:15.806Z,10.53
2018-07-13T09:31:54.902Z,13.47
2018-07-13T09:34:25.894Z,15.27
2018-07-13T09:36:58.390Z,13.53
2018-07-13T09:39:31.102Z,14.60
2018-07-13T09:42:04.221Z,13.60
2018-07-13T09:44:35.254Z,12.63
2018-07-13T09:47:06.572Z,11.67
2018-07-13T09:49:37.227Z,15.53
2018-07-13T09:52:09.396Z,17.97
2018-07-13T09:54:40.394Z,14.70
2018-07-13T09:57:11.319Z,13.30
2018-07-13T09:59:42.313Z,15.20
2018-07-13T10:02:13.750Z,16.03
2018-07-13T10:04:45.471Z,13.67
2018-07-13T10:07:17.302Z,15.77
2018-07-13T10:09:48.976Z,11.73
2018-07-13T10:12:20.603Z,16.27
2018-07-13T10:14:53.642Z,15.43
2018-07-13T10:17:25.054Z,13.93
2018-07-13T10:19:55.763Z,12.23
2018-07-13T10:22:30.045Z,14.43
2018-07-13T10:25:02.458Z,12.27
2018-07-13T10:27:37.788Z,14.83
2018-07-13T10:30:13.384Z,17.50
2018-07-13T10:32:45.351Z,13.97
2018-07-13T10:35:16.209Z,14.27
2018-07-13T10:37:47.966Z,13.90
2018-07-13T10:40:19.271Z,19.37
2018-07-13T10:42:50.950Z,14.17
2018-07-13T10:45:23.840Z,12.27
2018-07-13T10:47:55.466Z,17.70
2018-07-13T10:50:26.109Z,11.77
2018-07-13T10:52:58.827Z,12.80
2018-07-13T10:55:32.569Z,11.60
2018-07-13T10:58:03.501Z,13.43
2018-07-13T11:00:35.547Z,15.70
2018-07-13T11:03:06.527Z,12.67
2018-07-13T11:05:40.198Z,14.57
2018-07-13T11:08:10.432Z,14.67
2018-07-13T11:10:41.372Z,11.90
2018-07-13T11:13:16.530Z,13.27
2018-07-13T11:15:49.947Z,13.33
2018-07-13T11:18:21.850Z,13.17
2018-07-13T11:20:53.630Z,14.83
2018-07-13T11:23:25.550Z,17.00
2018-07-13T11:25:57.471Z,12.77
2018-07-13T11:28:30.111Z,12.53
2018-07-13T11:31:02.060Z,15.30
2018-07-13T11:33:34.573Z,13.53
2018-07-13T11:36:06.602Z,15.67
2018-07-13T11:38:38.769Z,11.37
2018-07-13T11:41:10.744Z,20.40
2018-07-13T11:43:42.820Z,12.00
2018-07-13T11:46:14.865Z,14.43
2018-07-13T11:48:47.130Z,11.50
2018-07-13T11:51:19.061Z,13.37
2018-07-13T11:53:51.384Z,9.70
2018-07-13T11:56:23.234Z,11.23
2018-07-13T11:58:55.033Z,12.73
2018-07-13T12:01:27.406Z,10.73
2018-07-13T12:03:59.443Z,9.77
2018-07-13T12:06:31.691Z,10.83
2018-07-13T12:09:04.068Z,10.57
2018-07-13T12:11:36.555Z,11.23
2018-07-13T12:14:08.994Z,11.40
2018-07-13T12:16:41.188Z,11.47
2018-07-13T12:19:13.539Z,11.63
2018-07-13T12:21:45.567Z,12.57
2018-07-13T12:24:18.088Z,13.03
2018-07-13T12:26:50.083Z,13.13
2018-07-13T12:29:22.941Z,13.33
2018-07-13T12:31:55.698Z,10.87
2018-07-13T12:34:28.037Z,8.87
2018-07-13T12:37:00.154Z,11.90
2018-07-13T12:39:32.624Z,11.20
2018-07-13T12:42:04.787Z,8.33
2018-07-13T12:44:37.571Z,10.47
2018-07-13T12:47:09.694Z,9.93
2018-07-13T12:49:41.445Z,10.27
2018-07-13T12:52:13.353Z,8.63
2018-07-13T12:54:45.915Z,12.57
2018-07-13T12:57:18.307Z,10.67
2018-07-13T12:59:50.654Z,8.33
2018-07-13T13:02:22.996Z,9.40
2018-07-13T13:04:55.511Z,10.57
2018-07-13T13:07:27.903Z,11.00
2018-07-13T13:10:00.576Z,9.07
2018-07-13T13:12:32.594Z,11.67
2018-07-13T13:15:05.064Z,12.77
2018-07-13T13:17:37.253Z,12.40
2018-07-13T13:20:09.730Z,9.07
2018-07-13T13:22:41.120Z,7.37
2018-07-13T13:25:12.949Z,12.20
2018-07-13T13:27:44.787Z,9.30
2018-07-13T13:30:17.447Z,9.90
2018-07-13T13:32:49.828Z,7.33
2018-07-13T13:35:22.198Z,10.33
2018-07-13T13:37:54.475Z,7.50
2018-07-13T13:40:27.073Z,9.43
2018-07-13T13:42:59.390Z,8.23
2018-07-13T13:45:32.022Z,7.47
2018-07-13T13:48:03.893Z,8.67
2018-07-13T13:50:36.445Z,9.63
2018-07-13T13:53:08.954Z,8.83
2018-07-13T13:55:42.009Z,9.20
2018-07-13T13:58:14.965Z,10.50
2018-07-13T14:00:47.211Z,6.33
2018-07-13T14:03:19.510Z,7.40
2018-07-13T14:05:52.353Z,11.33
2018-07-13T14:08:25.414Z,8.63
2018-07-13T14:10:58.603Z,8.33
2018-07-13T14:13:30.745Z,7.00
2018-07-13T14:16:02.859Z,7.97
2018-07-13T14:18:35.127Z,8.30
2018-07-13T14:21:07.747Z,6.97
2018-07-13T14:23:39.202Z,10.90
2018-07-13T14:26:12.128Z,8.90
2018-07-13T14:28:45.008Z,9.37
2018-07-13T14:31:17.894Z,8.77
2018-07-13T14:33:50.167Z,9.13
2018-07-13T14:36:23.343Z,8.00
2018-07-13T14:38:55.396Z,8.03
2018-07-13T14:41:29.816Z,13.73
2018-07-13T14:44:04.490Z,7.97
2018-07-13T14:46:37.309Z,9.13
2018-07-13T14:49:09.838Z,7.77
2018-07-13T14:51:42.955Z,7.37
2018-07-13T14:54:16.476Z,8.03
2018-07-13T14:56:50.325Z,8.30
2018-07-13T14:59:22.395Z,8.43
2018-07-13T15:01:55.410Z,9.10
2018-07-13T15:04:27.845Z,8.13
2018-07-13T15:07:00.726Z,7.57
2018-07-13T15:09:32.697Z,7.23
2018-07-13T15:12:05.211Z,6.83
2018-07-13T15:14:38.196Z,6.70
2018-07-13T15:17:11.036Z,7.27
2018-07-13T15:19:51.488Z,8.93
2018-07-13T15:59:25.959Z,6.07
2018-07-13T16:01:56.911Z,7.83
2018-07-13T16:04:28.120Z,5.93
2018-07-13T16:06:59.001Z,6.80
2018-07-13T16:09:30.270Z,10.70
2018-07-13T16:12:01.623Z,9.33
2018-07-13T16:14:33.067Z,6.63
2018-07-13T16:17:03.988Z,7.73
2018-07-13T16:19:35.272Z,9.83
2018-07-13T16:22:06.304Z,8.93
2018-07-13T16:24:37.593Z,11.83
2018-07-13T16:27:08.817Z,5.87
2018-07-13T16:29:39.957Z,7.70
2018-07-13T16:32:10.962Z,8.40
2018-07-13T16:34:42.123Z,9.57
2018-07-13T16:37:12.991Z,8.67
2018-07-13T16:39:44.171Z,6.40
2018-07-13T16:42:15.453Z,7.50
2018-07-13T16:44:49.581Z,7.70
2018-07-13T16:47:21.634Z,8.27
2018-07-13T16:49:52.587Z,6.67
2018-07-13T16:52:23.898Z,6.83
2018-07-13T16:54:54.932Z,8.77
2018-07-13T16:57:25.824Z,9.70
2018-07-13T16:59:57.507Z,6.57
2018-07-13T17:02:29.427Z,6.17
2018-07-13T17:05:00.355Z,6.50
2018-07-13T17:07:31.594Z,8.33
2018-07-13T17:10:02.745Z,5.80
2018-07-13T17:12:33.723Z,6.93
2018-07-13T17:15:07.232Z,9.67
2018-07-13T17:17:38.923Z,8.40
2018-07-13T17:20:10.093Z,6.57
2018-07-13T17:22:40.978Z,8.30
2018-07-13T17:25:12.071Z,4.73
2018-07-13T17:27:42.963Z,6.67
2018-07-13T17:30:13.888Z,8.27
2018-07-13T17:32:44.764Z,5.93
2018-07-13T17:35:16.053Z,8.97
2018-07-13T17:37:47.275Z,7.53
2018-07-13T17:40:18.505Z,7.23
2018-07-13T17:42:49.519Z,7.10
2018-07-13T17:45:20.436Z,6.97
2018-07-13T17:48:02.669Z,8.37
2018-07-13T17:50:36.043Z,8.27
2018-07-13T17:53:06.983Z,8.13
2018-07-13T17:55:38.231Z,9.53
2018-07-13T17:58:09.103Z,9.37
2018-07-13T18:00:40.417Z,9.43
2018-07-13T18:03:11.275Z,8.97
2018-07-13T18:05:42.284Z,13.10
2018-07-13T18:08:13.398Z,8.90
2018-07-13T18:10:44.271Z,7.47
2018-07-13T18:13:15.112Z,8.67
2018-07-13T18:15:46.591Z,8.03
2018-07-13T18:18:17.431Z,9.23
2018-07-13T18:20:48.289Z,10.43
2018-07-13T18:23:19.603Z,7.67
2018-07-13T18:25:50.460Z,10.17
2018-07-13T18:28:21.295Z,9.07
2018-07-13T18:30:52.312Z,8.50
2018-07-13T18:33:23.188Z,7.40
2018-07-13T18:35:54.627Z,9.53
2018-07-13T18:38:24.808Z,8.00
2018-07-13T18:40:56.043Z,12.43
2018-07-13T18:43:27.006Z,10.90
2018-07-13T18:46:13.723Z,10.93
2018-07-13T18:48:46.251Z,6.53
2018-07-13T18:51:17.149Z,7.63
2018-07-13T18:53:48.008Z,10.57
2018-07-13T18:56:19.162Z,12.30
2018-07-13T18:58:53.007Z,12.33
2018-07-13T19:01:24.399Z,17.90
2018-07-13T19:03:55.539Z,12.63
2018-07-13T19:06:26.538Z,12.03
2018-07-13T19:08:56.710Z,13.33
2018-07-13T19:11:27.997Z,13.83
2018-07-13T19:13:58.877Z,9.77
2018-07-13T19:16:30.055Z,13.70
2018-07-13T19:19:00.923Z,13.47
2018-07-13T19:21:31.879Z,11.53
2018-07-13T19:24:03.152Z,11.50
2018-07-13T19:26:34.216Z,8.93
2018-07-13T19:29:05.226Z,14.17
2018-07-13T19:31:36.767Z,13.60
2018-07-13T19:34:07.923Z,10.23
2018-07-13T19:36:38.972Z,11.63
2018-07-13T19:39:09.923Z,15.93
2018-07-13T19:41:40.966Z,12.77
2018-07-13T19:44:12.114Z,11.07
2018-07-13T19:46:42.991Z,10.73
2018-07-13T19:49:13.302Z,8.83
2018-07-13T19:51:53.862Z,10.37
2018-07-13T19:54:24.733Z,10.33
2018-07-13T19:56:55.735Z,14.17
2018-07-13T19:59:32.355Z,10.50
2018-07-13T20:02:03.092Z,9.50
2018-07-13T20:04:33.674Z,10.77
2018-07-13T20:07:04.662Z,6.97
2018-07-13T20:09:35.314Z,10.63
2018-07-13T20:12:06.216Z,11.83
2018-07-13T20:14:36.787Z,9.60
2018-07-13T20:17:07.739Z,10.10
2018-07-13T20:19:38.604Z,9.97
2018-07-13T20:22:09.176Z,10.87
2018-07-13T20:24:39.781Z,9.40
2018-07-13T20:27:10.926Z,8.90
2018-07-13T20:29:41.593Z,10.40
2018-07-13T20:32:12.465Z,10.83
2018-07-13T20:34:43.353Z,13.40
2018-07-13T20:37:14.251Z,7.97
2018-07-13T20:39:44.202Z,12.17
2018-07-13T20:42:15.054Z,8.47
2018-07-13T20:44:45.653Z,9.73
2018-07-13T20:47:16.257Z,7.20
2018-07-13T20:49:47.269Z,8.00
2018-07-13T20:52:18.169Z,7.07
2018-07-13T20:54:49.163Z,6.90
2018-07-13T20:57:20.186Z,10.97
2018-07-13T20:59:50.917Z,11.03
2018-07-13T21:02:22.250Z,9.23
2018-07-13T21:04:52.883Z,9.50
2018-07-13T21:07:24.167Z,9.97
2018-07-13T21:09:56.303Z,9.90
2018-07-13T21:12:32.300Z,11.50
2018-07-13T21:15:04.107Z,9.93
2018-07-13T21:17:35.082Z,12.90
2018-07-13T21:20:05.783Z,12.67
2018-07-13T21:22:40.463Z,9.33
2018-07-13T21:25:11.061Z,15.67
2018-07-13T21:27:47.505Z,10.97
2018-07-13T21:30:23.256Z,10.87
2018-07-13T21:32:54.775Z,8.97
2018-07-13T21:35:33.654Z,10.37
2018-07-13T21:38:05.951Z,12.20
2018-07-13T21:40:41.946Z,8.53
2018-07-13T21:43:18.072Z,10.90
2018-07-13T21:45:50.278Z,9.27
2018-07-13T21:48:22.485Z,12.60
2018-07-13T21:50:58.741Z,14.60
2018-07-13T21:53:31.626Z,9.30
2018-07-13T21:56:06.526Z,11.10
2018-07-13T22:01:26.541Z,11.07
2018-07-13T22:03:58.953Z,8.03
2018-07-13T22:06:32.230Z,9.57
2018-07-13T22:09:07.824Z,10.33
2018-07-13T22:11:45.488Z,12.27
2018-07-13T22:14:37.961Z,9.93
2018-07-13T22:17:09.383Z,9.87
2018-07-13T22:19:42.988Z,10.17
2018-07-13T22:22:17.596Z,11.83
2018-07-13T22:24:50.655Z,7.67
2018-07-13T22:27:26.664Z,9.73
2018-07-13T22:30:09.038Z,9.27
2018-07-13T22:32:40.939Z,10.27
2018-07-13T22:35:12.746Z,7.60
2018-07-13T22:37:43.951Z,8.90
2018-07-13T22:40:16.795Z,6.87
2018-07-13T22:42:48.163Z,6.53
2018-07-13T22:45:19.954Z,7.80
2018-07-13T22:47:55.365Z,6.97
2018-07-13T22:50:30.401Z,6.17
2018-07-13T22:53:03.481Z,6.07
2018-07-13T22:55:35.572Z,7.60
2018-07-13T22:58:08.632Z,7.33
2018-07-13T23:00:40.611Z,8.07
2018-07-13T23:03:12.082Z,6.23
2018-07-13T23:05:46.801Z,8.03
2018-07-13T23:08:18.389Z,8.67
2018-07-13T23:10:51.433Z,7.10
2018-07-13T23:13:22.111Z,7.47
2018-07-13T23:15:53.969Z,9.43
2018-07-13T23:18:24.579Z,9.23
2018-07-13T23:20:55.297Z,8.33
2018-07-13T23:23:26.431Z,9.37
2018-07-13T23:25:58.815Z,10.17
2018-07-13T23:28:29.400Z,7.50
2018-07-13T23:30:59.935Z,10.30
2018-07-13T23:33:31.550Z,9.43
2018-07-13T23:36:02.530Z,7.60
2018-07-13T23:38:34.195Z,8.57
2018-07-13T23:41:10.182Z,8.90
2018-07-13T23:43:42.040Z,7.03
2018-07-13T23:46:13.140Z,7.87
2018-07-13T23:48:44.913Z,7.23
2018-07-13T23:51:15.828Z,6.90
2018-07-13T23:53:46.964Z,6.87
2018-07-13T23:56:21.605Z,8.53
2018-07-13T23:58:58.779Z,7.83
